createdAt,value
2024-02-13T00:00:11.576Z,9.30
2024-02-13T00:02:39.490Z,9.00
2024-02-13T00:05:10.832Z,10.48
2024-02-13T00:07:39.954Z,9.75
2024-02-13T00:10:10.877Z,6.78
2024-02-13T00:12:38.518Z,8.20
2024-02-13T00:15:06.170Z,7.80
2024-02-13T00:17:33.705Z,6.07
2024-02-13T00:20:01.012Z,7.97
2024-02-13T00:22:28.221Z,7.90
2024-02-13T00:24:55.441Z,10.02
2024-02-13T00:27:22.592Z,6.45
2024-02-13T00:29:50.923Z,7.30
2024-02-13T00:32:20.308Z,6.20
2024-02-13T00:34:47.553Z,8.15
2024-02-13T00:37:14.767Z,6.22
2024-02-13T00:39:42.031Z,6.85
2024-02-13T00:42:09.236Z,6.53
2024-02-13T00:44:39.728Z,9.40
2024-02-13T00:47:09.443Z,7.57
2024-02-13T00:49:36.770Z,6.50
2024-02-13T00:52:04.077Z,6.30
2024-02-13T00:54:31.246Z,5.82
2024-02-13T00:56:58.512Z,6.00
2024-02-13T00:59:26.758Z,5.30
2024-02-13T01:01:54.235Z,6.35
2024-02-13T01:04:22.374Z,6.82
2024-02-13T01:06:49.844Z,8.27
2024-02-13T01:09:17.086Z,6.50
2024-02-13T01:11:44.338Z,7.45
2024-02-13T01:14:12.489Z,5.72
2024-02-13T01:16:41.591Z,5.53
2024-02-13T01:19:08.835Z,6.35
2024-02-13T01:21:36.329Z,6.63
2024-02-13T01:24:03.551Z,7.55
2024-02-13T01:26:30.814Z,7.22
2024-02-13T01:28:58.423Z,5.25
2024-02-13T01:31:25.612Z,6.20
2024-02-13T01:33:52.970Z,4.97
2024-02-13T01:36:20.523Z,5.47
2024-02-13T01:38:47.881Z,7.38
2024-02-13T01:41:15.781Z,6.18
2024-02-13T01:43:43.106Z,9.30
2024-02-13T01:46:10.426Z,6.53
2024-02-13T01:48:39.826Z,5.35
2024-02-13T01:51:07.964Z,6.10
2024-02-13T01:53:36.049Z,4.85
2024-02-13T01:56:04.571Z,6.05
2024-02-13T01:58:32.165Z,5.35
2024-02-13T02:01:03.131Z,7.03
2024-02-13T02:03:33.574Z,6.28
2024-02-13T02:06:02.148Z,5.53
2024-02-13T02:08:29.672Z,5.35
2024-02-13T02:10:58.995Z,5.53
2024-02-13T02:13:27.736Z,5.35
2024-02-13T02:15:55.840Z,5.72
2024-02-13T02:18:25.766Z,5.85
2024-02-13T02:20:53.253Z,6.25
2024-02-13T02:23:20.902Z,5.43
2024-02-13T02:25:48.731Z,6.47
2024-02-13T02:28:19.236Z,6.53
2024-02-13T02:30:46.848Z,5.40
2024-02-13T02:33:14.704Z,5.72
2024-02-13T02:35:43.262Z,7.05
2024-02-13T02:38:11.489Z,7.82
2024-02-13T02:40:39.101Z,6.50
2024-02-13T02:43:06.344Z,5.70
2024-02-13T02:45:33.663Z,5.20
2024-02-13T02:48:01.053Z,5.22
2024-02-13T02:50:28.305Z,7.22
2024-02-13T02:52:55.653Z,5.32
2024-02-13T02:55:23.614Z,5.10
2024-02-13T02:57:53.718Z,5.80
2024-02-13T03:00:22.100Z,5.85
2024-02-13T03:02:49.954Z,5.38
2024-02-13T03:05:20.466Z,5.78
2024-02-13T03:07:47.951Z,4.78
2024-02-13T03:10:15.299Z,6.57
2024-02-13T03:12:42.463Z,5.43
2024-02-13T03:15:09.865Z,5.00
2024-02-13T03:17:41.071Z,6.80
2024-02-13T03:20:12.089Z,5.05
2024-02-13T03:22:40.221Z,4.90
2024-02-13T03:25:07.857Z,5.82
2024-02-13T03:27:35.115Z,5.30
2024-02-13T03:30:03.405Z,6.57
2024-02-13T03:32:30.841Z,4.88
2024-02-13T03:34:58.121Z,5.22
2024-02-13T03:37:25.577Z,5.35
2024-02-13T03:39:53.033Z,4.28
2024-02-13T03:42:20.269Z,4.55
2024-02-13T03:44:47.631Z,4.20
2024-02-13T03:47:15.635Z,5.05
2024-02-13T03:49:42.952Z,5.57
2024-02-13T03:52:11.031Z,5.82
2024-02-13T03:54:38.424Z,4.97
2024-02-13T03:57:06.125Z,4.95
2024-02-13T03:59:33.532Z,4.95
2024-02-13T04:02:01.117Z,4.72
2024-02-13T04:04:28.320Z,4.90
2024-02-13T04:06:55.631Z,4.63
2024-02-13T04:09:22.770Z,5.05
2024-02-13T04:11:51.376Z,4.18
2024-02-13T04:14:20.551Z,4.75
2024-02-13T04:16:48.124Z,3.95
2024-02-13T04:19:15.604Z,4.45
2024-02-13T04:21:42.872Z,4.65
2024-02-13T04:24:10.136Z,4.80
2024-02-13T04:26:43.923Z,4.53
2024-02-13T04:29:11.318Z,4.18
2024-02-13T04:31:39.433Z,4.25
2024-02-13T04:34:10.416Z,4.57
2024-02-13T04:36:41.316Z,7.65
2024-02-13T04:39:08.708Z,4.35
2024-02-13T04:41:36.024Z,4.25
2024-02-13T04:44:03.854Z,5.45
2024-02-13T04:46:31.323Z,5.45
2024-02-13T04:48:58.798Z,8.35
2024-02-13T04:51:26.186Z,4.40
2024-02-13T04:53:53.654Z,7.15
2024-02-13T04:56:21.094Z,4.22
2024-02-13T04:58:48.656Z,4.03
2024-02-13T05:01:16.257Z,5.00
2024-02-13T05:04:04.232Z,3.70
2024-02-13T05:06:50.272Z,6.57
2024-02-13T05:09:17.649Z,4.75
2024-02-13T05:11:44.937Z,6.60
2024-02-13T05:14:12.160Z,4.22
2024-02-13T05:16:41.724Z,6.00
2024-02-13T05:19:09.943Z,3.70
2024-02-13T05:21:37.453Z,4.63
2024-02-13T05:24:04.991Z,5.90
2024-02-13T05:26:32.658Z,6.00
2024-02-13T05:29:00.128Z,4.45
2024-02-13T05:31:28.293Z,6.07
2024-02-13T05:33:55.836Z,5.05
2024-02-13T05:36:23.210Z,7.05
2024-02-13T05:38:52.120Z,8.82
2024-02-13T05:41:19.586Z,7.50
2024-02-13T05:43:46.928Z,4.80
2024-02-13T05:46:19.854Z,5.60
2024-02-13T05:48:47.358Z,5.97
2024-02-13T05:51:16.143Z,5.35
2024-02-13T05:53:44.696Z,5.18
2024-02-13T05:56:23.503Z,6.57
2024-02-13T05:58:57.197Z,5.47
2024-02-13T06:01:24.658Z,4.90
2024-02-13T06:03:56.160Z,9.90
2024-02-13T06:06:23.919Z,5.88
2024-02-13T06:08:51.386Z,5.25
2024-02-13T06:11:18.663Z,5.30
2024-02-13T06:13:46.585Z,6.50
2024-02-13T06:16:14.106Z,8.23
2024-02-13T06:18:41.405Z,7.68
2024-02-13T06:21:08.641Z,7.05
2024-02-13T06:23:35.888Z,8.88
2024-02-13T06:26:03.145Z,7.88
2024-02-13T06:28:30.345Z,9.05
2024-02-13T06:30:57.566Z,8.48
2024-02-13T06:33:24.935Z,4.55
2024-02-13T06:35:52.218Z,9.10
2024-02-13T06:38:19.492Z,11.20
2024-02-13T06:40:46.855Z,6.93
2024-02-13T06:43:14.202Z,5.85
2024-02-13T06:45:41.439Z,5.35
2024-02-13T06:48:08.895Z,8.73
2024-02-13T06:50:36.270Z,7.10
2024-02-13T06:53:03.459Z,10.20
2024-02-13T06:55:31.960Z,8.60
2024-02-13T06:57:59.285Z,8.63
2024-02-13T07:00:27.244Z,10.88
2024-02-13T07:02:56.191Z,9.02
2024-02-13T07:05:24.483Z,8.75
2024-02-13T07:07:52.040Z,9.05
2024-02-13T07:10:19.661Z,10.38
2024-02-13T07:12:46.907Z,8.70
2024-02-13T07:15:15.967Z,7.68
2024-02-13T07:17:52.581Z,8.85
2024-02-13T07:20:27.620Z,9.23
2024-02-13T07:22:55.031Z,11.60
2024-02-13T07:25:22.529Z,10.00
2024-02-13T07:27:54.018Z,8.15
2024-02-13T07:30:21.274Z,9.20
2024-02-13T07:32:48.759Z,11.63
2024-02-13T07:35:16.499Z,9.55
2024-02-13T07:37:44.127Z,12.50
2024-02-13T07:40:11.686Z,13.07
2024-02-13T07:42:39.076Z,11.27
2024-02-13T07:45:06.555Z,10.85
2024-02-13T07:47:35.222Z,15.55
2024-02-13T07:50:02.539Z,10.57
2024-02-13T07:52:29.743Z,13.68
2024-02-13T07:54:56.970Z,9.77
2024-02-13T07:57:24.229Z,10.57
2024-02-13T07:59:57.314Z,8.45
2024-02-13T08:02:25.242Z,11.02
2024-02-13T08:04:53.299Z,11.02
2024-02-13T08:07:22.211Z,8.93
2024-02-13T08:09:49.518Z,10.85
2024-02-13T08:12:17.020Z,8.35
2024-02-13T08:14:44.512Z,11.82
2024-02-13T08:17:12.665Z,11.43
2024-02-13T08:19:41.788Z,8.88
2024-02-13T08:22:09.451Z,14.45
2024-02-13T08:24:37.136Z,9.32
2024-02-13T08:27:04.796Z,6.88
2024-02-13T08:29:32.318Z,10.45
2024-02-13T08:31:59.737Z,7.95
2024-02-13T08:34:27.336Z,10.02
2024-02-13T08:36:56.570Z,11.40
2024-02-13T08:39:23.763Z,8.20
2024-02-13T08:41:50.954Z,8.80
2024-02-13T08:44:20.122Z,6.63
2024-02-13T08:46:47.478Z,8.63
2024-02-13T08:49:15.282Z,8.18
2024-02-13T08:51:42.862Z,7.22
2024-02-13T08:54:12.742Z,8.18
2024-02-13T08:56:43.465Z,11.40
2024-02-13T08:59:10.672Z,9.50
2024-02-13T09:01:37.910Z,9.45
2024-02-13T09:04:05.237Z,10.85
2024-02-13T09:06:34.147Z,7.22
2024-02-13T09:09:03.172Z,7.47
2024-02-13T09:11:32.685Z,8.98
2024-02-13T09:14:00.479Z,7.60
2024-02-13T09:16:27.736Z,6.38
2024-02-13T09:18:57.098Z,9.50
2024-02-13T09:21:25.440Z,10.27
2024-02-13T09:23:53.005Z,6.57
2024-02-13T09:26:20.355Z,7.53
2024-02-13T09:28:47.688Z,8.88
2024-02-13T09:31:15.289Z,6.95
2024-02-13T09:33:43.296Z,7.18
2024-02-13T09:36:15.483Z,7.90
2024-02-13T09:38:43.555Z,7.10
2024-02-13T09:41:14.539Z,6.18
2024-02-13T09:43:45.938Z,6.80
2024-02-13T09:46:18.530Z,12.02
2024-02-13T09:48:50.115Z,9.35
2024-02-13T09:51:19.432Z,6.95
2024-02-13T09:53:51.584Z,7.22
2024-02-13T09:56:19.817Z,6.53
2024-02-13T09:58:48.399Z,7.40
2024-02-13T10:01:16.085Z,7.45
2024-02-13T10:03:43.539Z,12.25
2024-02-13T10:06:11.994Z,12.25
2024-02-13T10:08:41.183Z,16.58
2024-02-13T10:11:17.330Z,14.73
2024-02-13T10:13:47.556Z,9.60
2024-02-13T10:16:24.706Z,16.27
2024-02-13T10:18:53.280Z,11.98
2024-02-13T10:21:21.041Z,13.95
2024-02-13T10:23:49.647Z,12.30
2024-02-13T10:26:17.336Z,11.88
2024-02-13T10:28:45.376Z,11.73
2024-02-13T10:31:12.841Z,10.50
2024-02-13T10:33:43.653Z,9.57
2024-02-13T10:36:11.556Z,9.05
2024-02-13T10:38:39.326Z,7.43
2024-02-13T10:41:11.758Z,8.75
2024-02-13T10:43:42.862Z,8.20
2024-02-13T10:46:11.937Z,8.02
2024-02-13T10:48:39.413Z,7.95
2024-02-13T10:51:08.267Z,7.80
2024-02-13T10:53:36.464Z,11.13
2024-02-13T10:56:04.058Z,8.65
2024-02-13T10:58:33.675Z,8.18
2024-02-13T11:01:01.481Z,7.70
2024-02-13T11:03:29.679Z,6.97
2024-02-13T11:05:56.897Z,8.45
2024-02-13T11:08:24.492Z,6.85
2024-02-13T11:10:52.251Z,8.70
2024-02-13T11:13:21.654Z,6.85
2024-02-13T11:15:49.069Z,10.15
2024-02-13T11:18:17.795Z,7.50
2024-02-13T11:20:45.451Z,6.50
2024-02-13T11:23:14.425Z,7.70
2024-02-13T11:25:43.763Z,6.63
2024-02-13T11:28:12.216Z,7.45
2024-02-13T11:30:41.852Z,6.60
2024-02-13T11:33:09.743Z,7.85
2024-02-13T11:35:46.602Z,7.57
2024-02-13T11:38:17.287Z,6.25
2024-02-13T11:40:45.460Z,6.25
2024-02-13T11:43:22.013Z,6.45
2024-02-13T11:45:50.383Z,8.70
2024-02-13T11:48:18.492Z,6.15
2024-02-13T11:50:45.812Z,6.38
2024-02-13T11:53:13.148Z,6.95
2024-02-13T11:55:41.108Z,6.90
2024-02-13T11:58:15.817Z,6.05
2024-02-13T12:00:45.712Z,5.97
2024-02-13T12:03:13.224Z,7.03
2024-02-13T12:05:43.877Z,7.60
2024-02-13T12:08:12.500Z,8.13
2024-02-13T12:10:39.667Z,5.80
2024-02-13T12:13:07.894Z,5.90
2024-02-13T12:15:35.105Z,5.57
2024-02-13T12:18:04.497Z,5.97
2024-02-13T12:20:34.178Z,6.07
2024-02-13T12:23:02.973Z,7.65
2024-02-13T12:25:31.935Z,6.00
2024-02-13T12:28:02.302Z,5.35
2024-02-13T12:30:29.515Z,6.13
2024-02-13T12:32:57.072Z,6.18
2024-02-13T12:35:33.397Z,6.18
2024-02-13T12:38:13.829Z,5.38
2024-02-13T12:40:41.894Z,5.97
2024-02-13T12:43:09.730Z,5.60
2024-02-13T12:45:42.781Z,7.38
2024-02-13T12:48:14.084Z,6.13
2024-02-13T12:50:43.163Z,5.85
2024-02-13T12:53:10.999Z,5.20
2024-02-13T12:55:42.064Z,5.47
2024-02-13T12:58:09.462Z,5.82
2024-02-13T13:00:36.868Z,22.92
2024-02-13T13:03:05.802Z,165.98
2024-02-13T13:05:33.256Z,506.13
2024-02-13T13:08:05.973Z,551.28
2024-02-13T13:10:34.172Z,546.97
2024-02-13T13:13:01.919Z,554.00
2024-02-13T13:15:30.027Z,493.92
2024-02-13T13:17:58.499Z,486.33
2024-02-13T13:20:29.308Z,454.73
2024-02-13T13:22:58.177Z,434.90
2024-02-13T13:25:27.341Z,422.40
2024-02-13T13:27:55.728Z,388.27
2024-02-13T13:30:23.154Z,380.08
2024-02-13T13:32:50.684Z,345.45
2024-02-13T13:35:21.449Z,360.80
2024-02-13T13:37:49.048Z,329.42
2024-02-13T13:40:18.120Z,327.48
2024-02-13T13:42:45.538Z,320.35
2024-02-13T13:45:15.731Z,314.55
2024-02-13T13:47:46.858Z,306.58
2024-02-13T13:50:18.766Z,311.00
2024-02-13T13:52:46.935Z,289.13
2024-02-13T13:55:14.771Z,298.40
2024-02-13T13:57:42.157Z,296.52
2024-02-13T14:00:11.045Z,274.48
2024-02-13T14:02:39.179Z,273.55
2024-02-13T14:05:08.141Z,289.40
2024-02-13T14:07:35.505Z,252.35
2024-02-13T14:10:03.207Z,211.95
2024-02-13T14:12:30.779Z,187.95
2024-02-13T14:14:58.674Z,169.23
2024-02-13T14:17:26.018Z,142.57
2024-02-13T14:19:54.816Z,130.90
2024-02-13T14:22:22.128Z,130.90
2024-02-13T14:24:49.460Z,100.85
2024-02-13T14:27:16.626Z,59.08
2024-02-13T14:29:44.097Z,59.17
2024-02-13T14:32:11.648Z,55.17
2024-02-13T14:34:38.956Z,58.75
2024-02-13T14:37:07.396Z,63.38
2024-02-13T14:39:35.067Z,59.10
2024-02-13T14:42:04.212Z,63.40
2024-02-13T14:44:31.653Z,58.72
2024-02-13T14:46:59.046Z,56.65
2024-02-13T14:49:26.745Z,56.50
2024-02-13T14:51:57.500Z,52.53
2024-02-13T14:54:24.769Z,55.17
2024-02-13T14:56:52.105Z,52.70
2024-02-13T14:59:20.255Z,51.97
2024-02-13T15:01:47.943Z,50.97
2024-02-13T15:04:15.267Z,52.25
2024-02-13T15:06:42.613Z,51.20
2024-02-13T15:09:11.803Z,46.97
2024-02-13T15:11:39.260Z,46.05
2024-02-13T15:14:08.158Z,48.17
2024-02-13T15:16:35.541Z,42.33
2024-02-13T15:19:04.215Z,45.95
2024-02-13T15:21:34.672Z,46.45
2024-02-13T15:24:02.034Z,45.03
2024-02-13T15:26:31.389Z,45.90
2024-02-13T15:28:59.867Z,51.03
2024-02-13T15:31:27.041Z,45.17
2024-02-13T15:33:54.881Z,44.03
2024-02-13T15:36:34.270Z,41.83
2024-02-13T15:39:20.316Z,47.28
2024-02-13T15:42:06.798Z,45.80
2024-02-13T15:44:53.498Z,43.60
2024-02-13T15:47:22.212Z,42.65
2024-02-13T15:49:51.196Z,46.30
2024-02-13T15:52:18.692Z,40.20
2024-02-13T15:54:49.000Z,44.22
2024-02-13T15:57:17.104Z,39.83
2024-02-13T15:59:44.793Z,44.75
2024-02-13T16:02:15.529Z,44.28
2024-02-13T16:04:44.482Z,43.58
2024-02-13T16:07:15.348Z,47.58
2024-02-13T16:09:44.662Z,44.33
2024-02-13T16:12:11.921Z,43.42
2024-02-13T16:14:39.233Z,41.17
2024-02-13T16:17:06.576Z,40.03
2024-02-13T16:19:33.834Z,38.45
2024-02-13T16:22:01.160Z,38.97
2024-02-13T16:24:28.416Z,37.03
2024-02-13T16:26:55.698Z,37.13
2024-02-13T16:29:24.849Z,34.88
2024-02-13T16:31:55.757Z,36.42
2024-02-13T16:34:23.214Z,37.90
2024-02-13T16:36:50.674Z,40.05
2024-02-13T16:39:19.246Z,39.25
2024-02-13T16:41:47.184Z,38.63
2024-02-13T16:44:18.784Z,37.85
2024-02-13T16:46:48.529Z,35.40
2024-02-13T16:49:15.962Z,35.00
2024-02-13T16:51:43.174Z,33.75
2024-02-13T16:54:11.231Z,33.58
2024-02-13T16:56:38.638Z,30.88
2024-02-13T16:59:05.887Z,33.70
2024-02-13T17:01:33.614Z,33.67
2024-02-13T17:04:04.210Z,34.28
2024-02-13T17:06:32.186Z,32.00
2024-02-13T17:09:01.632Z,32.35
2024-02-13T17:11:29.402Z,33.38
2024-02-13T17:13:56.924Z,27.02
2024-02-13T17:16:24.161Z,33.05
2024-02-13T17:18:51.799Z,38.10
2024-02-13T17:21:19.791Z,33.38
2024-02-13T17:23:47.193Z,33.75
2024-02-13T17:26:19.302Z,29.70
2024-02-13T17:28:46.657Z,46.63
2024-02-13T17:31:14.328Z,32.35
2024-02-13T17:33:41.861Z,32.55
2024-02-13T17:36:10.823Z,29.27
2024-02-13T17:38:38.941Z,34.30
2024-02-13T17:41:07.008Z,29.77
2024-02-13T17:43:34.715Z,27.42
2024-02-13T17:46:01.952Z,32.00
2024-02-13T17:48:29.432Z,26.95
2024-02-13T17:50:56.850Z,27.90
2024-02-13T17:53:24.086Z,29.13
2024-02-13T17:55:51.640Z,38.58
2024-02-13T17:58:18.793Z,25.38
2024-02-13T18:00:46.025Z,30.88
2024-02-13T18:03:13.573Z,34.72
2024-02-13T18:05:41.142Z,27.17
2024-02-13T18:08:08.651Z,28.00
2024-02-13T18:10:35.921Z,40.45
2024-02-13T18:13:05.318Z,30.38
2024-02-13T18:15:32.529Z,32.25
2024-02-13T18:17:59.819Z,32.58
2024-02-13T18:20:28.260Z,29.90
2024-02-13T18:22:55.888Z,32.60
2024-02-13T18:25:23.491Z,29.48
2024-02-13T18:27:50.687Z,26.08
2024-02-13T18:30:17.988Z,26.20
2024-02-13T18:32:45.527Z,26.67
2024-02-13T18:35:12.829Z,29.10
2024-02-13T18:37:41.897Z,29.02
2024-02-13T18:40:09.662Z,27.55
2024-02-13T18:42:36.847Z,26.92
2024-02-13T18:45:04.448Z,24.77
2024-02-13T18:47:32.178Z,24.77
2024-02-13T18:49:59.471Z,26.67
2024-02-13T18:52:27.870Z,22.63
2024-02-13T18:54:55.060Z,22.30
2024-02-13T18:57:22.318Z,25.83
2024-02-13T18:59:49.620Z,26.45
2024-02-13T19:02:20.504Z,30.92
2024-02-13T19:04:48.704Z,31.27
2024-02-13T19:07:16.404Z,28.98
2024-02-13T19:09:45.285Z,31.15
2024-02-13T19:12:12.465Z,29.77
2024-02-13T19:14:39.651Z,31.83
2024-02-13T19:17:07.509Z,28.55
2024-02-13T19:19:35.509Z,30.20
2024-02-13T19:22:02.814Z,26.20
2024-02-13T19:24:30.109Z,27.70
2024-02-13T19:27:00.153Z,25.35
2024-02-13T19:29:27.490Z,25.75
2024-02-13T19:31:54.747Z,25.27
2024-02-13T19:34:23.537Z,23.52
2024-02-13T19:36:52.339Z,23.67
2024-02-13T19:39:21.150Z,24.65
2024-02-13T19:41:48.438Z,26.23
2024-02-13T19:44:16.188Z,24.55
2024-02-13T19:46:44.045Z,23.48
2024-02-13T19:49:11.614Z,28.27
2024-02-13T19:51:39.461Z,22.13
2024-02-13T19:54:06.952Z,20.92
2024-02-13T19:56:34.479Z,21.27
2024-02-13T19:59:01.770Z,19.55
2024-02-13T20:01:28.966Z,19.75
2024-02-13T20:03:56.353Z,20.38
2024-02-13T20:06:24.532Z,21.45
2024-02-13T20:08:52.145Z,22.70
2024-02-13T20:11:19.479Z,19.63
2024-02-13T20:13:47.633Z,20.60
2024-02-13T20:16:14.868Z,18.35
2024-02-13T20:18:42.854Z,20.20
2024-02-13T20:21:10.596Z,22.55
2024-02-13T20:23:37.935Z,18.95
2024-02-13T20:26:05.517Z,21.23
2024-02-13T20:28:34.378Z,18.92
2024-02-13T20:31:01.741Z,20.13
2024-02-13T20:33:32.484Z,21.40
2024-02-13T20:36:01.080Z,18.45
2024-02-13T20:38:28.686Z,18.88
2024-02-13T20:40:58.917Z,18.98
2024-02-13T20:43:29.986Z,17.63
2024-02-13T20:45:57.294Z,23.05
2024-02-13T20:48:24.634Z,22.92
2024-02-13T20:50:51.930Z,15.85
2024-02-13T20:53:19.268Z,19.20
2024-02-13T20:55:47.517Z,19.98
2024-02-13T20:58:14.926Z,17.00
2024-02-13T21:00:44.871Z,19.23
2024-02-13T21:03:12.597Z,18.80
2024-02-13T21:05:41.715Z,17.17
2024-02-13T21:08:08.961Z,18.60
2024-02-13T21:10:36.218Z,16.70
2024-02-13T21:13:04.186Z,17.10
2024-02-13T21:15:33.701Z,15.30
2024-02-13T21:18:00.921Z,13.85
2024-02-13T21:20:31.056Z,14.30
2024-02-13T21:23:17.472Z,17.60
2024-02-13T21:25:44.680Z,16.30
2024-02-13T21:28:11.897Z,14.30
2024-02-13T21:30:39.029Z,16.90
2024-02-13T21:33:08.459Z,15.82
2024-02-13T21:35:35.855Z,15.18
2024-02-13T21:38:05.537Z,17.85
2024-02-13T21:40:35.873Z,15.25
2024-02-13T21:43:06.284Z,20.50
2024-02-13T21:45:34.275Z,16.20
2024-02-13T21:48:01.628Z,13.82
2024-02-13T21:50:29.755Z,14.05
2024-02-13T21:52:57.034Z,14.75
2024-02-13T21:55:24.291Z,19.15
2024-02-13T21:57:51.517Z,18.88
2024-02-13T22:00:18.820Z,15.38
2024-02-13T22:02:46.645Z,13.82
2024-02-13T22:05:15.319Z,13.20
2024-02-13T22:07:42.567Z,18.55
2024-02-13T22:10:12.509Z,18.23
2024-02-13T22:12:46.079Z,18.33
2024-02-13T22:15:19.054Z,18.73
2024-02-13T22:17:46.343Z,18.42
2024-02-13T22:20:16.698Z,15.55
2024-02-13T22:22:44.232Z,14.55
2024-02-13T22:25:11.474Z,19.90
2024-02-13T22:27:38.659Z,17.10
2024-02-13T22:30:06.196Z,17.98
2024-02-13T22:32:33.506Z,14.50
2024-02-13T22:35:00.975Z,14.43
2024-02-13T22:37:28.309Z,18.05
2024-02-13T22:39:55.486Z,13.95
2024-02-13T22:42:23.451Z,11.52
2024-02-13T22:44:50.689Z,14.38
2024-02-13T22:47:17.930Z,14.07
2024-02-13T22:49:45.972Z,11.88
2024-02-13T22:52:13.169Z,15.40
2024-02-13T22:54:40.388Z,11.23
2024-02-13T22:57:07.660Z,11.15
2024-02-13T22:59:38.034Z,12.88
2024-02-13T23:02:06.972Z,11.27
2024-02-13T23:04:34.373Z,11.82
2024-02-13T23:07:02.146Z,12.23
2024-02-13T23:09:29.686Z,12.38
2024-02-13T23:11:58.897Z,17.52
2024-02-13T23:16:54.550Z,11.85
2024-02-13T23:19:22.887Z,10.40
2024-02-13T23:21:50.589Z,11.80
2024-02-13T23:24:18.065Z,11.95
2024-02-13T23:26:45.548Z,10.30
2024-02-13T23:29:12.903Z,13.48
2024-02-13T23:31:40.465Z,12.55
2024-02-13T23:34:10.449Z,10.40
2024-02-13T23:36:37.777Z,9.93
2024-02-13T23:39:05.104Z,9.63
2024-02-13T23:41:32.423Z,8.60
2024-02-13T23:43:59.692Z,12.57
2024-02-13T23:46:26.857Z,9.27
2024-02-13T23:48:54.344Z,10.55
2024-02-13T23:51:21.810Z,9.75
2024-02-13T23:53:50.132Z,9.98
2024-02-13T23:56:18.888Z,15.55
2024-02-13T23:58:49.657Z,11.52
